Time;durP1;ratioP1;P1;durP2;ratioP2;P2;SDS_P1;SDS_P2;PMS_P1;PMS_P2;Temp;Humidity;BMP_temperature;BMP_pressure;BME280_temperature;BME280_humidity;BME280_pressure;Samples;Min_cycle;Max_cycle;Signal;HPM_P1;HPM_P2
2023/05/07 00:04:48;;;;;;;4.50;3.80;;;16.00;99.90;;;;;;10445039;28;20594;-79
2023/05/07 00:09:51;;;;;;;4.07;3.77;;;16.00;99.90;;;;;;10392806;28;20225;-79
2023/05/07 00:14:53;;;;;;;4.20;3.90;;;16.10;99.90;;;;;;10428642;28;20261;-79
2023/05/07 00:19:56;;;;;;;4.17;3.90;;;16.10;99.90;;;;;;10436591;28;20624;-79
2023/05/07 00:25:00;;;;;;;4.00;3.80;;;16.00;99.90;;;;;;10428284;28;20220;-80
2023/05/07 00:30:02;;;;;;;4.53;4.23;;;16.00;99.90;;;;;;10391554;28;20224;-79
2023/05/07 00:35:04;;;;;;;3.60;3.40;;;15.90;99.90;;;;;;10438027;28;20621;-79
2023/05/07 00:40:09;;;;;;;4.60;4.20;;;15.90;99.90;;;;;;10401284;28;20595;-80
2023/05/07 00:45:11;;;;;;;3.80;3.50;;;15.90;99.90;;;;;;10441636;28;20219;-79
2023/05/07 00:50:14;;;;;;;4.03;3.73;;;15.90;99.90;;;;;;10401995;28;20214;-80
2023/05/07 00:55:18;;;;;;;4.20;3.90;;;15.90;99.90;;;;;;10430260;28;20210;-81
2023/05/07 01:00:20;;;;;;;4.37;4.07;;;15.80;99.90;;;;;;10444228;28;20281;-81
2023/05/07 01:05:25;;;;;;;4.00;3.77;;;15.80;99.90;;;;;;10429261;28;20195;-80
2023/05/07 01:10:30;;;;;;;4.23;3.93;;;15.70;99.90;;;;;;10423121;28;20217;-80
2023/05/07 01:15:32;;;;;;;3.97;3.67;;;15.70;99.90;;;;;;10439251;28;20614;-81
2023/05/07 01:20:34;;;;;;;4.53;4.13;;;15.70;99.90;;;;;;10420774;28;20201;-80
2023/05/07 01:25:38;;;;;;;4.47;4.17;;;15.60;99.90;;;;;;10411432;28;20546;-81
2023/05/07 01:30:44;;;;;;;4.87;4.57;;;15.50;99.90;;;;;;10438433;28;20229;-81
2023/05/07 01:35:50;;;;;;;4.40;4.10;;;15.50;99.90;;;;;;10382805;28;20203;-81
2023/05/07 01:40:54;;;;;;;6.13;4.23;;;15.50;99.90;;;;;;10397958;28;20725;-81
2023/05/07 01:45:58;;;;;;;4.43;4.13;;;15.50;99.90;;;;;;10439164;28;20218;-81
2023/05/07 01:51:01;;;;;;;4.27;4.07;;;15.50;99.90;;;;;;10414801;28;20693;-81
2023/05/07 01:56:05;;;;;;;4.20;3.90;;;15.40;99.90;;;;;;10380665;28;20256;-81
2023/05/07 02:01:08;;;;;;;4.30;4.10;;;15.40;99.90;;;;;;10444031;28;20241;-80
2023/05/07 02:06:10;;;;;;;4.87;4.40;;;15.30;99.90;;;;;;10430029;28;20198;-81
2023/05/07 02:11:16;;;;;;;4.77;4.27;;;15.40;99.90;;;;;;10415075;28;20681;-79
2023/05/07 02:16:19;;;;;;;3.97;3.77;;;15.30;99.90;;;;;;10437012;28;20256;-79
2023/05/07 02:21:22;;;;;;;4.27;4.03;;;15.30;99.90;;;;;;10431420;28;20608;-79
2023/05/07 02:26:26;;;;;;;4.30;4.10;;;15.30;99.90;;;;;;10430102;28;20209;-80
2023/05/07 02:31:29;;;;;;;5.17;4.17;;;15.20;99.90;;;;;;10437133;28;20229;-79
2023/05/07 02:36:31;;;;;;;4.67;4.40;;;15.20;99.90;;;;;;10400339;28;20195;-80
2023/05/07 02:41:41;;;;;;;5.10;4.80;;;15.20;99.90;;;;;;10409038;28;20523;-79
2023/05/07 02:46:43;;;;;;;5.63;5.13;;;15.20;99.90;;;;;;10409177;28;20650;-79
2023/05/07 02:51:47;;;;;;;5.43;5.07;;;15.10;99.90;;;;;;10442777;28;20218;-81
2023/05/07 02:56:57;;;;;;;5.60;5.10;;;15.10;99.90;;;;;;10425189;28;20220;-80
2023/05/07 03:01:59;;;;;;;6.83;5.47;;;15.10;99.90;;;;;;10438705;28;20210;-81
2023/05/07 03:07:02;;;;;;;6.30;5.80;;;15.00;99.90;;;;;;10422840;28;20245;-80
2023/05/07 03:12:06;;;;;;;8.37;6.20;;;15.00;99.90;;;;;;10407897;28;20229;-79
2023/05/07 03:17:08;;;;;;;5.97;5.47;;;14.90;99.90;;;;;;10406062;28;20580;-79
2023/05/07 03:22:10;;;;;;;5.47;5.10;;;14.90;99.90;;;;;;10406284;28;20217;-79
2023/05/07 03:27:13;;;;;;;4.73;4.33;;;14.90;99.90;;;;;;10421414;28;20214;-79
2023/05/07 03:32:16;;;;;;;4.57;4.37;;;14.90;99.90;;;;;;10383162;28;20689;-79
2023/05/07 03:37:18;;;;;;;4.90;4.60;;;14.80;99.90;;;;;;10385325;28;20752;-79
2023/05/07 03:42:22;;;;;;;4.60;4.30;;;14.80;99.90;;;;;;10380552;28;20269;-79
2023/05/07 03:47:27;;;;;;;5.03;4.73;;;14.80;99.90;;;;;;10371721;28;20210;-79
2023/05/07 03:52:29;;;;;;;4.93;4.57;;;14.70;99.90;;;;;;10375081;28;20216;-79
2023/05/07 03:57:40;;;;;;;3.97;3.77;;;14.70;99.90;;;;;;10427522;28;20651;-79
2023/05/07 04:02:42;;;;;;;4.83;4.57;;;14.80;99.90;;;;;;10403201;28;20209;-81
2023/05/07 04:07:44;;;;;;;5.77;4.70;;;14.70;99.90;;;;;;10413310;28;20214;-80
2023/05/07 04:12:50;;;;;;;4.43;4.13;;;14.70;99.90;;;;;;10420510;28;20582;-81
2023/05/07 04:17:57;;;;;;;4.53;4.23;;;14.60;99.90;;;;;;10409072;28;20214;-80
2023/05/07 04:23:00;;;;;;;4.73;4.43;;;14.60;99.90;;;;;;10384795;28;20217;-79
2023/05/07 04:28:05;;;;;;;4.93;4.73;;;14.60;99.90;;;;;;10392393;28;20283;-79
2023/05/07 04:33:08;;;;;;;5.40;5.00;;;14.70;99.90;;;;;;10418333;28;20299;-79
2023/05/07 04:38:11;;;;;;;4.90;4.50;;;14.70;99.90;;;;;;10427348;28;20563;-79
2023/05/07 04:43:15;;;;;;;5.23;4.93;;;14.70;99.90;;;;;;10400293;28;20229;-79
2023/05/07 04:48:23;;;;;;;5.73;5.30;;;14.70;99.90;;;;;;10391029;28;20214;-80
2023/05/07 04:53:27;;;;;;;5.23;4.83;;;14.70;99.90;;;;;;10421932;28;20626;-81
2023/05/07 04:58:32;;;;;;;5.47;5.00;;;14.70;99.90;;;;;;10388853;28;20324;-79
2023/05/07 05:03:34;;;;;;;5.10;4.80;;;14.70;99.90;;;;;;10435806;28;20567;-81
2023/05/07 05:08:37;;;;;;;5.10;4.80;;;14.70;99.90;;;;;;10414894;28;20213;-80
2023/05/07 05:13:41;;;;;;;6.50;6.00;;;14.70;99.90;;;;;;10384039;28;20745;-80
2023/05/07 05:18:48;;;;;;;5.83;5.30;;;14.70;99.90;;;;;;10402543;28;20257;-81
2023/05/07 05:23:53;;;;;;;5.13;4.80;;;14.70;99.90;;;;;;10401160;28;20215;-80
2023/05/07 05:29:00;;;;;;;5.60;5.20;;;14.70;99.90;;;;;;10401941;28;20229;-80
2023/05/07 05:34:04;;;;;;;5.93;4.80;;;14.80;99.90;;;;;;10436641;28;20237;-82
2023/05/07 05:39:08;;;;;;;5.70;5.23;;;14.90;99.90;;;;;;10435345;28;20201;-79
2023/05/07 05:44:11;;;;;;;6.20;5.27;;;15.00;99.90;;;;;;10401502;28;20230;-81
2023/05/07 05:49:14;;;;;;;6.63;6.13;;;15.10;99.90;;;;;;10381964;28;20238;-80
2023/05/07 05:54:17;;;;;;;6.00;5.50;;;15.20;99.90;;;;;;10416275;28;20633;-81
2023/05/07 05:59:21;;;;;;;7.27;6.87;;;15.30;99.90;;;;;;10361468;28;20660;-81
2023/05/07 06:04:23;;;;;;;6.40;6.00;;;15.40;99.90;;;;;;10407522;28;20575;-79
2023/05/07 06:09:26;;;;;;;6.90;6.30;;;15.50;99.90;;;;;;10389629;28;20241;-80
2023/05/07 06:14:29;;;;;;;7.20;6.50;;;15.70;99.90;;;;;;10444795;28;20224;-79
2023/05/07 06:19:32;;;;;;;7.07;6.50;;;15.90;99.90;;;;;;10429052;28;20237;-81
2023/05/07 06:24:35;;;;;;;7.57;6.97;;;16.10;99.90;;;;;;10405642;28;20264;-80
2023/05/07 06:29:39;;;;;;;7.90;7.30;;;16.20;99.90;;;;;;10402871;28;20301;-80
2023/05/07 06:34:48;;;;;;;6.90;6.40;;;16.40;99.90;;;;;;10368863;28;20221;-79
2023/05/07 06:39:51;;;;;;;7.93;7.13;;;16.50;99.90;;;;;;10402978;28;20215;-80
2023/05/07 06:44:54;;;;;;;7.97;7.27;;;16.50;99.90;;;;;;10424257;28;20221;-79
2023/05/07 06:49:57;;;;;;;7.77;6.97;;;16.50;99.90;;;;;;10362059;28;20215;-80
2023/05/07 06:55:02;;;;;;;7.97;7.27;;;16.50;99.90;;;;;;10430726;28;20238;-81
2023/05/07 07:00:08;;;;;;;10.40;8.40;;;16.50;99.90;;;;;;10360852;28;20218;-79
2023/05/07 07:05:18;;;;;;;8.57;7.80;;;16.50;99.90;;;;;;10374849;28;20691;-81
2023/05/07 07:10:20;;;;;;;8.20;7.60;;;16.60;99.90;;;;;;10411148;28;20768;-80
2023/05/07 07:15:25;;;;;;;8.47;7.77;;;16.70;99.90;;;;;;10409081;28;20197;-80
2023/05/07 07:20:27;;;;;;;8.00;7.40;;;16.90;99.90;;;;;;10359602;28;20663;-80
2023/05/07 07:25:30;;;;;;;7.80;7.10;;;17.00;99.90;;;;;;10376797;28;20197;-80
2023/05/07 07:30:34;;;;;;;7.10;6.50;;;17.20;99.90;;;;;;10384947;28;20218;-81
2023/05/07 07:35:36;;;;;;;6.80;6.30;;;17.40;99.90;;;;;;10450389;28;20281;-79
2023/05/07 07:40:40;;;;;;;6.70;6.10;;;17.70;99.90;;;;;;10441689;28;20193;-81
2023/05/07 07:45:45;;;;;;;6.67;6.13;;;17.90;99.90;;;;;;10410439;28;20586;-80
2023/05/07 07:50:50;;;;;;;7.80;6.77;;;18.20;99.90;;;;;;10402964;28;20229;-79
2023/05/07 07:55:53;;;;;;;6.03;5.53;;;18.60;99.90;;;;;;10404833;28;20574;-79
2023/05/07 08:01:01;;;;;;;5.87;5.43;;;19.00;99.90;;;;;;10440470;28;20209;-79
2023/05/07 08:06:03;;;;;;;6.77;6.03;;;19.30;99.90;;;;;;10375161;28;20572;-79
2023/05/07 08:11:07;;;;;;;6.10;5.70;;;19.60;99.90;;;;;;10383025;28;20218;-79
2023/05/07 08:16:13;;;;;;;4.67;4.23;;;19.80;99.90;;;;;;10424331;28;20204;-80
2023/05/07 08:21:15;;;;;;;4.20;4.00;;;20.00;99.90;;;;;;10438031;28;20221;-79
2023/05/07 08:26:17;;;;;;;4.20;3.90;;;20.20;99.90;;;;;;10391692;28;20237;-79
2023/05/07 08:31:21;;;;;;;4.60;4.20;;;20.30;99.90;;;;;;10372304;28;20227;-79
2023/05/07 08:36:24;;;;;;;4.93;4.53;;;20.50;99.90;;;;;;10406911;28;20210;-80
2023/05/07 08:41:26;;;;;;;5.17;4.73;;;20.80;99.90;;;;;;10383440;28;20242;-81
2023/05/07 08:46:32;;;;;;;4.97;4.63;;;21.10;99.60;;;;;;10422166;28;20258;-81
2023/05/07 08:51:36;;;;;;;4.27;3.97;;;21.60;99.40;;;;;;10439283;28;20313;-81
2023/05/07 08:56:39;;;;;;;4.20;4.00;;;22.00;99.20;;;;;;10394950;28;20250;-81
2023/05/07 09:01:43;;;;;;;3.17;3.07;;;22.50;98.10;;;;;;10402728;28;20222;-81
2023/05/07 09:06:47;;;;;;;3.90;3.60;;;22.80;98.30;;;;;;10440393;28;20198;-79
2023/05/07 09:11:58;;;;;;;3.53;3.23;;;23.00;98.90;;;;;;10403652;28;20242;-80
2023/05/07 09:17:02;;;;;;;3.43;3.07;;;23.10;97.40;;;;;;10422887;28;20194;-81
2023/05/07 09:22:07;;;;;;;3.70;3.40;;;23.30;97.80;;;;;;10403579;28;20219;-81
2023/05/07 09:27:29;;;;;;;3.83;3.53;;;23.50;97.30;;;;;;10435296;28;20213;-80
2023/05/07 09:32:37;;;;;;;3.90;3.60;;;23.80;95.70;;;;;;10442255;28;20598;-80
2023/05/07 09:37:42;;;;;;;2.60;2.50;;;24.10;95.90;;;;;;10409033;28;20217;-80
2023/05/07 09:42:44;;;;;;;3.60;3.40;;;24.40;95.80;;;;;;10383748;28;20218;-81
2023/05/07 09:47:50;;;;;;;3.40;3.20;;;24.80;95.40;;;;;;10420795;28;20194;-80
2023/05/07 09:52:53;;;;;;;3.30;3.10;;;25.10;94.60;;;;;;10408275;28;20217;-80
2023/05/07 09:57:55;;;;;;;3.50;3.20;;;25.40;92.10;;;;;;10455763;28;20197;-81
2023/05/07 10:03:03;;;;;;;2.70;2.53;;;25.50;90.90;;;;;;10412525;28;20266;-83
2023/05/07 10:08:16;;;;;;;4.23;3.93;;;25.70;91.40;;;;;;10440631;28;20218;-82
2023/05/07 10:13:21;;;;;;;4.17;3.90;;;26.00;92.50;;;;;;10458583;28;20214;-82
2023/05/07 10:18:29;;;;;;;4.07;3.73;;;26.00;92.40;;;;;;10437230;28;20228;-81
2023/05/07 10:23:37;;;;;;;3.63;3.43;;;25.70;89.90;;;;;;10414970;28;20211;-82
2023/05/07 10:28:44;;;;;;;4.13;3.73;;;25.10;92.50;;;;;;10402187;28;20222;-81
2023/05/07 10:33:52;;;;;;;3.50;3.30;;;24.80;91.00;;;;;;10430228;28;20230;-80
2023/05/07 10:38:56;;;;;;;3.90;3.57;;;24.40;93.30;;;;;;10440776;28;20201;-80
2023/05/07 10:44:01;;;;;;;3.80;3.40;;;24.10;91.50;;;;;;10427080;28;20686;-79
2023/05/07 10:49:14;;;;;;;3.77;3.57;;;24.00;93.00;;;;;;10397378;28;20289;-80
2023/05/07 10:54:27;;;;;;;4.70;4.30;;;24.00;94.10;;;;;;10422347;28;20210;-79
2023/05/07 10:59:43;;;;;;;3.77;3.33;;;24.00;93.60;;;;;;10442126;28;20199;-80
2023/05/07 11:05:21;;;;;;;3.37;3.13;;;23.90;93.40;;;;;;10413392;28;20209;-81
2023/05/07 11:10:50;;;;;;;3.33;2.80;;;23.80;93.30;;;;;;10417131;28;20210;-80
2023/05/07 11:16:20;;;;;;;3.63;3.43;;;23.90;94.60;;;;;;10401771;28;20203;-79
2023/05/07 11:21:38;;;;;;;3.23;3.10;;;23.90;90.70;;;;;;10424378;28;20277;-81
2023/05/07 11:26:52;;;;;;;4.40;3.47;;;23.80;90.10;;;;;;10410481;28;20211;-81
2023/05/07 11:31:57;;;;;;;3.33;3.07;;;23.90;91.40;;;;;;10428765;28;20715;-80
2023/05/07 11:37:05;;;;;;;3.23;2.97;;;24.00;90.20;;;;;;10434023;28;20226;-81
2023/05/07 11:42:27;;;;;;;2.97;2.80;;;24.00;91.80;;;;;;10422472;28;20289;-81
2023/05/07 11:47:31;;;;;;;3.50;3.20;;;24.00;91.10;;;;;;10388208;28;20203;-81
2023/05/07 11:52:36;;;;;;;3.70;3.50;;;23.90;93.40;;;;;;10433128;28;20223;-81
2023/05/07 11:57:38;;;;;;;3.40;3.20;;;23.70;92.30;;;;;;10381422;28;20584;-81
2023/05/07 12:02:41;;;;;;;4.33;4.03;;;23.30;93.20;;;;;;10403708;28;20250;-81
2023/05/07 12:07:45;;;;;;;3.80;3.50;;;23.00;93.10;;;;;;10399362;28;20210;-81
2023/05/07 12:12:47;;;;;;;3.77;3.57;;;22.70;92.80;;;;;;10425648;28;20242;-81
2023/05/07 12:17:50;;;;;;;3.90;3.70;;;22.40;94.70;;;;;;10429049;28;20203;-81
2023/05/07 12:22:54;;;;;;;4.20;3.90;;;22.10;95.60;;;;;;10434145;28;20210;-80
2023/05/07 12:27:58;;;;;;;8.00;5.83;;;21.90;97.30;;;;;;10456655;28;20204;-81
2023/05/07 12:33:00;;;;;;;14.17;12.37;;;21.60;99.90;;;;;;10418907;28;20273;-82
2023/05/07 12:38:08;;;;;;;12.30;11.30;;;21.00;99.90;;;;;;10417508;28;20205;-81
2023/05/07 12:43:17;;;;;;;12.70;11.37;;;20.40;99.90;;;;;;10405535;28;20214;-81
2023/05/07 12:48:20;;;;;;;37.73;12.57;;;19.80;99.90;;;;;;10390898;28;20205;-80
2023/05/07 12:53:26;;;;;;;28.53;11.20;;;19.20;99.90;;;;;;10415162;28;20286;-81
2023/05/07 12:58:30;;;;;;;11.67;10.47;;;18.70;99.90;;;;;;10420746;28;20205;-81
2023/05/07 13:03:33;;;;;;;11.13;9.63;;;18.10;99.90;;;;;;10439959;28;20244;-80
2023/05/07 13:08:40;;;;;;;13.33;10.50;;;17.70;99.90;;;;;;10451325;28;20205;-81
2023/05/07 13:13:42;;;;;;;15.00;13.40;;;17.20;99.90;;;;;;10423365;28;20249;-81
2023/05/07 13:18:45;;;;;;;12.97;11.97;;;16.80;99.90;;;;;;10425000;28;20225;-81
2023/05/07 13:23:49;;;;;;;14.30;13.40;;;16.50;99.90;;;;;;10431540;28;20222;-81
2023/05/07 13:28:51;;;;;;;12.20;11.40;;;16.20;99.90;;;;;;10425175;28;20235;-80
2023/05/07 13:33:53;;;;;;;14.23;13.30;;;16.00;99.90;;;;;;10451180;28;20272;-80
2023/05/07 13:38:59;;;;;;;13.90;13.03;;;16.00;99.90;;;;;;10413342;28;20255;-79
2023/05/07 13:44:01;;;;;;;13.47;12.57;;;16.00;99.90;;;;;;10432546;28;20217;-81
2023/05/07 13:49:03;;;;;;;13.23;12.50;;;16.00;99.90;;;;;;10459648;28;20206;-81
2023/05/07 13:54:07;;;;;;;12.30;11.60;;;15.80;99.90;;;;;;10460124;28;20221;-81
2023/05/07 13:59:09;;;;;;;12.53;11.87;;;15.70;99.90;;;;;;10440491;28;20190;-81
2023/05/07 14:04:11;;;;;;;11.67;10.97;;;15.70;99.90;;;;;;10437540;28;20712;-80
2023/05/07 14:09:14;;;;;;;13.17;12.23;;;15.70;99.90;;;;;;10410402;28;20245;-80
2023/05/07 14:14:16;;;;;;;14.03;13.23;;;15.80;99.90;;;;;;10432280;28;20237;-80
2023/05/07 14:19:18;;;;;;;14.27;13.57;;;15.80;99.90;;;;;;10397863;28;20430;-81
2023/05/07 14:24:22;;;;;;;15.53;14.27;;;15.90;99.90;;;;;;10426674;28;20214;-81
2023/05/07 14:29:24;;;;;;;14.97;14.17;;;15.90;99.90;;;;;;10433968;28;20204;-82
2023/05/07 14:34:26;;;;;;;14.07;13.37;;;15.90;99.90;;;;;;10424962;28;20221;-79
2023/05/07 14:39:30;;;;;;;14.47;13.60;;;15.90;99.90;;;;;;10428730;28;20193;-80
2023/05/07 14:44:32;;;;;;;14.07;13.30;;;15.90;99.90;;;;;;10418032;28;20238;-82
2023/05/07 14:49:35;;;;;;;14.70;14.00;;;15.90;99.90;;;;;;10429820;28;20696;-81
2023/05/07 14:54:39;;;;;;;14.90;14.20;;;15.90;99.90;;;;;;10423786;28;20241;-82
2023/05/07 14:59:41;;;;;;;13.87;13.27;;;16.00;99.90;;;;;;10448071;28;20202;-82
2023/05/07 15:04:46;;;;;;;13.30;12.30;;;16.10;99.90;;;;;;10402749;28;20226;-81
2023/05/07 15:09:50;;;;;;;13.07;12.37;;;16.10;99.90;;;;;;10419631;28;20225;-81
2023/05/07 15:14:52;;;;;;;13.43;12.80;;;16.20;99.90;;;;;;10429413;28;20261;-80
2023/05/07 15:19:55;;;;;;;14.70;13.90;;;16.30;99.90;;;;;;10442049;28;20191;-82
2023/05/07 15:24:58;;;;;;;13.67;12.87;;;16.40;99.90;;;;;;10396053;28;20228;-79
2023/05/07 15:30:00;;;;;;;14.60;13.70;;;16.50;99.90;;;;;;10416600;28;20214;-80
2023/05/07 15:35:03;;;;;;;15.40;14.57;;;16.60;99.90;;;;;;10441089;23;20631;-80
2023/05/07 15:40:08;;;;;;;15.97;15.07;;;16.70;99.90;;;;;;10423951;28;20229;-80
2023/05/07 15:45:11;;;;;;;15.70;14.80;;;16.80;99.90;;;;;;10442302;28;20221;-81
2023/05/07 15:50:13;;;;;;;14.77;13.97;;;16.80;99.90;;;;;;10462606;28;20252;-81
2023/05/07 15:55:17;;;;;;;15.30;14.30;;;16.90;99.90;;;;;;10461175;28;20214;-82
2023/05/07 16:00:19;;;;;;;15.40;14.50;;;17.00;99.90;;;;;;10454873;28;20625;-82
2023/05/07 16:05:21;;;;;;;13.80;12.80;;;17.00;99.90;;;;;;10457866;28;20217;-82
2023/05/07 16:10:25;;;;;;;15.67;14.57;;;17.10;99.90;;;;;;10457243;28;20686;-82
2023/05/07 16:15:27;;;;;;;15.60;14.80;;;17.20;99.90;;;;;;10460083;28;20276;-81
2023/05/07 16:20:30;;;;;;;15.37;14.47;;;17.20;99.90;;;;;;10457775;28;20264;-81
2023/05/07 16:25:33;;;;;;;15.73;14.73;;;17.20;99.90;;;;;;10455135;28;20217;-81
2023/05/07 16:30:35;;;;;;;15.77;14.97;;;17.20;99.90;;;;;;10423376;28;20249;-81
2023/05/07 16:35:37;;;;;;;15.00;14.10;;;17.30;99.90;;;;;;10463880;28;20351;-81
2023/05/07 16:40:42;;;;;;;12.13;11.03;;;17.30;99.90;;;;;;10437996;28;20237;-82
2023/05/07 16:45:45;;;;;;;15.70;14.80;;;17.30;99.90;;;;;;10453622;28;20680;-81
2023/05/07 16:50:48;;;;;;;20.17;18.67;;;17.40;99.90;;;;;;10455083;28;20681;-81
2023/05/07 16:55:55;;;;;;;18.60;17.20;;;17.40;99.90;;;;;;10456451;28;20209;-80
2023/05/07 17:00:57;;;;;;;17.63;16.33;;;17.40;99.90;;;;;;10456750;28;20196;-80
2023/05/07 17:05:59;;;;;;;17.17;16.07;;;17.50;99.90;;;;;;10456630;28;20202;-83
2023/05/07 17:11:02;;;;;;;17.83;16.73;;;17.50;99.90;;;;;;10454055;28;20240;-81
2023/05/07 17:16:05;;;;;;;17.70;16.57;;;17.50;99.90;;;;;;10455590;28;20190;-82
2023/05/07 17:21:07;;;;;;;17.77;16.50;;;17.50;99.90;;;;;;10456461;28;20975;-81
2023/05/07 17:26:13;;;;;;;17.47;16.37;;;17.60;99.90;;;;;;10459874;28;20202;-82
2023/05/07 17:31:15;;;;;;;18.43;16.90;;;17.60;99.90;;;;;;10483269;28;20218;-82
2023/05/07 17:36:17;;;;;;;18.50;17.27;;;17.60;99.90;;;;;;10478444;28;20198;-82
2023/05/07 17:41:21;;;;;;;19.20;18.00;;;17.60;99.90;;;;;;10460594;28;20218;-82
2023/05/07 17:46:23;;;;;;;18.63;17.43;;;17.60;99.90;;;;;;10463185;28;20201;-82
2023/05/07 17:51:28;;;;;;;18.33;17.13;;;17.60;99.90;;;;;;10459241;28;20256;-82
2023/05/07 17:56:31;;;;;;;16.60;15.70;;;17.60;99.90;;;;;;10438534;28;20285;-81
2023/05/07 18:01:33;;;;;;;16.80;15.77;;;17.60;99.90;;;;;;10459024;28;20209;-82
2023/05/07 18:06:36;;;;;;;16.47;15.37;;;17.50;99.90;;;;;;10448687;28;20749;-82
2023/05/07 18:11:39;;;;;;;15.80;14.90;;;17.40;99.90;;;;;;10475171;28;20648;-83
2023/05/07 18:16:41;;;;;;;13.47;12.60;;;17.40;99.90;;;;;;10457481;28;20198;-81
2023/05/07 18:21:43;;;;;;;14.23;13.27;;;17.40;99.90;;;;;;10439106;28;20218;-81
2023/05/07 18:26:47;;;;;;;18.13;16.63;;;17.40;99.90;;;;;;10460872;28;20252;-80
2023/05/07 18:31:50;;;;;;;15.83;14.93;;;17.30;99.90;;;;;;10460626;28;20546;-79
2023/05/07 18:36:52;;;;;;;17.20;16.10;;;17.30;99.90;;;;;;10456904;28;20571;-80
2023/05/07 18:41:56;;;;;;;18.07;16.67;;;17.20;99.90;;;;;;10458472;28;20206;-81
2023/05/07 18:46:59;;;;;;;18.60;17.40;;;17.20;99.90;;;;;;10458405;28;20219;-81
2023/05/07 18:52:01;;;;;;;17.73;16.53;;;17.10;99.90;;;;;;10444772;28;20682;-81
2023/05/07 18:57:05;;;;;;;17.70;16.43;;;17.10;99.90;;;;;;10460911;28;20244;-80
2023/05/07 19:02:07;;;;;;;18.40;17.10;;;17.00;99.90;;;;;;10465052;28;20271;-82
2023/05/07 19:07:09;;;;;;;19.87;18.37;;;17.00;99.90;;;;;;10462142;28;20202;-83
2023/05/07 19:12:12;;;;;;;18.47;17.07;;;17.00;99.90;;;;;;10461545;28;20222;-84
2023/05/07 19:17:15;;;;;;;18.57;17.17;;;17.00;99.90;;;;;;10455710;28;20221;-81
2023/05/07 19:22:18;;;;;;;16.53;15.13;;;16.90;99.90;;;;;;10462913;28;20266;-82
2023/05/07 19:27:21;;;;;;;21.00;19.20;;;16.80;99.90;;;;;;10460557;28;20607;-82
2023/05/07 19:32:23;;;;;;;17.67;16.33;;;16.80;99.90;;;;;;10462414;28;20864;-81
2023/05/07 19:37:26;;;;;;;17.20;15.90;;;16.80;99.90;;;;;;10459575;28;20324;-81
2023/05/07 19:42:30;;;;;;;16.20;15.20;;;16.80;99.90;;;;;;10468792;28;20218;-82
2023/05/07 19:47:35;;;;;;;16.77;15.50;;;16.70;99.90;;;;;;10459276;28;20217;-80
2023/05/07 19:52:37;;;;;;;15.53;14.33;;;16.70;99.90;;;;;;10457477;28;20226;-81
2023/05/07 19:57:40;;;;;;;15.80;14.80;;;16.70;99.90;;;;;;10433550;28;20553;-82
2023/05/07 20:02:42;;;;;;;14.73;13.77;;;16.70;99.90;;;;;;10444320;28;20216;-82
2023/05/07 20:07:45;;;;;;;16.63;15.43;;;16.60;99.90;;;;;;10457048;28;20202;-82
2023/05/07 20:12:48;;;;;;;13.63;12.83;;;16.60;99.90;;;;;;10452751;28;20283;-81
2023/05/07 20:17:50;;;;;;;13.80;12.83;;;16.60;99.90;;;;;;10456641;28;20198;-81
2023/05/07 20:22:52;;;;;;;14.03;13.03;;;16.50;99.90;;;;;;10465503;28;20248;-79
2023/05/07 20:27:56;;;;;;;14.47;13.47;;;16.50;99.90;;;;;;10454840;28;20616;-80
2023/05/07 20:32:58;;;;;;;13.53;12.60;;;16.50;99.90;;;;;;10458344;28;20694;-80
2023/05/07 20:38:01;;;;;;;13.47;12.57;;;16.50;99.90;;;;;;10457303;28;20223;-79
2023/05/07 20:43:05;;;;;;;13.90;12.90;;;16.50;99.90;;;;;;10456213;28;20218;-81
2023/05/07 20:48:07;;;;;;;13.37;12.57;;;16.50;99.90;;;;;;10461251;28;20198;-81
2023/05/07 20:53:10;;;;;;;15.30;14.30;;;16.50;99.90;;;;;;10447723;28;20213;-81
2023/05/07 20:58:13;;;;;;;13.73;12.40;;;16.60;99.90;;;;;;10464270;28;20221;-82
2023/05/07 21:03:15;;;;;;;13.40;12.40;;;16.60;99.90;;;;;;10447919;28;20222;-82
2023/05/07 21:08:17;;;;;;;14.93;13.73;;;16.60;99.90;;;;;;10465121;28;20197;-82
2023/05/07 21:13:21;;;;;;;16.43;15.23;;;16.50;99.90;;;;;;10468276;28;20221;-82
2023/05/07 21:18:25;;;;;;;16.00;14.80;;;16.50;99.90;;;;;;10466111;28;20658;-81
2023/05/07 21:23:27;;;;;;;16.43;15.13;;;16.50;99.90;;;;;;10465191;28;20277;-82
2023/05/07 21:28:31;;;;;;;18.13;16.73;;;16.50;99.90;;;;;;10461397;28;20305;-82
2023/05/07 21:33:33;;;;;;;18.30;16.90;;;16.50;99.90;;;;;;10470076;23;20226;-81
2023/05/07 21:38:36;;;;;;;22.23;20.23;;;16.50;99.90;;;;;;10420468;28;20241;-80
2023/05/07 21:43:39;;;;;;;18.63;17.20;;;16.50;99.90;;;;;;10433056;28;20214;-82
2023/05/07 21:48:41;;;;;;;18.70;17.20;;;16.50;99.90;;;;;;10473573;28;20220;-80
2023/05/07 21:53:43;;;;;;;22.27;19.77;;;16.50;99.90;;;;;;10458928;28;20225;-82
2023/05/07 21:58:48;;;;;;;17.67;16.20;;;16.50;99.90;;;;;;10463526;28;20194;-81
2023/05/07 22:03:50;;;;;;;17.70;16.30;;;16.50;99.90;;;;;;10481522;28;20222;-81
2023/05/07 22:08:52;;;;;;;17.60;16.00;;;16.50;99.90;;;;;;10468016;28;20216;-82
2023/05/07 22:13:56;;;;;;;17.77;15.97;;;16.50;99.90;;;;;;10464500;28;20245;-81
2023/05/07 22:18:58;;;;;;;16.80;15.50;;;16.50;99.90;;;;;;10461989;28;20198;-81
2023/05/07 22:24:00;;;;;;;18.03;16.40;;;16.50;99.90;;;;;;10456405;28;20222;-82
2023/05/07 22:29:04;;;;;;;17.43;16.00;;;16.50;99.90;;;;;;10465973;28;20233;-83
2023/05/07 22:34:06;;;;;;;18.50;16.90;;;16.50;99.90;;;;;;10461923;28;20321;-80
2023/05/07 22:39:08;;;;;;;18.87;17.07;;;16.50;99.90;;;;;;10444820;28;20204;-80
2023/05/07 22:44:12;;;;;;;21.83;19.93;;;16.50;99.90;;;;;;10461525;28;20221;-82
2023/05/07 22:49:14;;;;;;;20.07;18.27;;;16.50;99.90;;;;;;10461981;28;20197;-81
2023/05/07 22:54:16;;;;;;;21.03;19.10;;;16.50;99.90;;;;;;10462902;28;20218;-80
2023/05/07 22:59:21;;;;;;;22.73;20.73;;;16.50;99.90;;;;;;10460566;28;20236;-82
2023/05/07 23:04:23;;;;;;;24.57;22.07;;;16.50;99.90;;;;;;10463302;28;20673;-81
2023/05/07 23:09:26;;;;;;;23.07;20.70;;;16.50;99.90;;;;;;10461164;28;20194;-81
2023/05/07 23:14:29;;;;;;;25.50;23.00;;;16.50;99.90;;;;;;10445803;28;20224;-82
2023/05/07 23:19:31;;;;;;;23.20;20.80;;;16.50;99.90;;;;;;10462079;28;20193;-82
2023/05/07 23:24:33;;;;;;;23.23;21.03;;;16.50;99.90;;;;;;10464099;28;20273;-81
2023/05/07 23:29:37;;;;;;;22.20;20.10;;;16.50;99.90;;;;;;10464418;28;20210;-83
2023/05/07 23:34:39;;;;;;;23.27;20.40;;;16.50;99.90;;;;;;10446644;28;20241;-82
2023/05/07 23:39:41;;;;;;;21.93;19.80;;;16.50;99.90;;;;;;10464598;28;20196;-83
2023/05/07 23:44:44;;;;;;;22.23;20.17;;;16.50;99.90;;;;;;10462009;28;20297;-83
2023/05/07 23:49:46;;;;;;;22.90;20.60;;;16.50;99.90;;;;;;10462027;28;20209;-81
2023/05/07 23:54:49;;;;;;;23.30;20.90;;;16.50;99.90;;;;;;10457664;28;20273;-81
2023/05/07 23:59:52;;;;;;;22.53;20.13;;;16.50;99.90;;;;;;10455921;28;20194;-82
